Time;durP1;ratioP1;P1;durP2;ratioP2;P2;SDS_P1;SDS_P2;PMS_P1;PMS_P2;Temp;Humidity;BMP_temperature;BMP_pressure;BME280_temperature;BME280_humidity;BME280_pressure;Samples;Min_cycle;Max_cycle;Signal;HPM_P1;HPM_P2
2022/10/01 00:00:25;;;;;;;1999.90;999.90;;;8.20;99.90;;;;;;5048437;28;20452;-67
2022/10/01 00:02:53;;;;;;;1999.90;999.90;;;8.30;99.90;;;;;;5047808;28;20583;-69
2022/10/01 00:05:20;;;;;;;1999.90;999.90;;;8.30;99.90;;;;;;5048682;28;20479;-68
2022/10/01 00:07:48;;;;;;;1999.90;999.90;;;8.40;99.90;;;;;;5048579;28;20444;-68
2022/10/01 00:10:16;;;;;;;1999.90;999.90;;;8.50;99.90;;;;;;5047973;28;20446;-68
2022/10/01 00:12:45;;;;;;;1999.90;999.90;;;8.50;99.90;;;;;;5048137;28;20864;-67
2022/10/01 00:15:13;;;;;;;1999.90;999.90;;;8.60;99.90;;;;;;5062838;28;21036;-68
2022/10/01 00:17:40;;;;;;;1999.90;999.90;;;8.50;99.90;;;;;;5067942;28;20439;-69
2022/10/01 00:20:08;;;;;;;1999.90;999.90;;;8.50;99.90;;;;;;5067828;28;20450;-68
2022/10/01 00:22:35;;;;;;;1999.90;999.90;;;8.50;99.90;;;;;;5067959;28;20479;-68
2022/10/01 00:25:05;;;;;;;1999.90;999.90;;;8.50;99.90;;;;;;5053805;28;20498;-68
2022/10/01 00:27:31;;;;;;;1999.90;999.90;;;8.60;99.90;;;;;;5051788;28;20444;-68
2022/10/01 00:29:58;;;;;;;1999.90;999.90;;;8.60;99.90;;;;;;5047936;28;20440;-68
2022/10/01 00:32:25;;;;;;;1999.90;999.90;;;8.70;99.90;;;;;;5047869;28;20818;-69
2022/10/01 00:34:52;;;;;;;1999.90;999.90;;;8.70;99.90;;;;;;5047691;28;20576;-69
2022/10/01 00:37:21;;;;;;;1999.90;999.90;;;8.70;99.90;;;;;;5056970;28;20534;-69
2022/10/01 00:39:47;;;;;;;1999.90;999.90;;;8.80;99.90;;;;;;5067670;28;20524;-68
2022/10/01 00:42:20;;;;;;;1999.90;999.90;;;8.80;99.90;;;;;;5067032;28;20506;-67
2022/10/01 00:44:48;;;;;;;1999.90;999.90;;;8.80;99.90;;;;;;5068665;28;20578;-68
2022/10/01 00:47:25;;;;;;;1999.90;999.90;;;8.80;99.90;;;;;;5069420;28;20487;-68
2022/10/01 00:49:56;;;;;;;1999.90;999.90;;;8.70;99.90;;;;;;5068628;28;20500;-68
2022/10/01 00:52:28;;;;;;;1999.90;999.90;;;8.80;99.90;;;;;;5069270;28;20804;-68
2022/10/01 00:55:00;;;;;;;1999.90;999.90;;;8.80;99.90;;;;;;5069284;28;20463;-68
2022/10/01 00:57:29;;;;;;;1999.90;999.90;;;8.90;99.90;;;;;;5069784;28;20450;-68
2022/10/01 00:59:59;;;;;;;1999.90;999.90;;;8.90;99.90;;;;;;5069329;28;20808;-68
2022/10/01 01:02:25;;;;;;;1999.90;999.90;;;8.90;99.90;;;;;;5069283;28;20991;-68
2022/10/01 01:04:52;;;;;;;1999.90;999.90;;;9.00;99.90;;;;;;5069421;28;20470;-68
2022/10/01 01:07:20;;;;;;;1999.90;999.90;;;9.00;99.90;;;;;;5069238;28;20447;-68
2022/10/01 01:09:48;;;;;;;1999.90;999.90;;;9.00;99.90;;;;;;5069363;28;20459;-68
2022/10/01 01:12:33;;;;;;;1999.90;999.90;;;8.90;99.90;;;;;;5068945;28;20789;-68
2022/10/01 01:15:11;;;;;;;1999.90;999.90;;;8.90;99.90;;;;;;5069271;28;20508;-68
2022/10/01 01:17:46;;;;;;;1999.90;999.90;;;9.00;99.90;;;;;;5069141;28;20451;-68
2022/10/01 01:20:39;;;;;;;1999.90;999.90;;;8.90;99.90;;;;;;5069276;28;20482;-68
2022/10/01 01:23:22;;;;;;;1999.90;999.90;;;8.90;99.90;;;;;;5055935;28;20506;-68
2022/10/01 01:25:58;;;;;;;1999.90;999.90;;;8.90;99.90;;;;;;5069166;28;20459;-68
2022/10/01 01:28:30;;;;;;;1999.90;999.90;;;8.80;99.90;;;;;;5069263;28;20447;-68
2022/10/01 01:31:02;;;;;;;1999.90;999.90;;;8.80;99.90;;;;;;5069090;28;20483;-67
2022/10/01 01:33:33;;;;;;;1999.90;999.90;;;8.80;99.90;;;;;;5069003;28;20457;-69
2022/10/01 01:36:04;;;;;;;1999.90;999.90;;;8.80;99.90;;;;;;5069033;28;20528;-68
2022/10/01 01:38:36;;;;;;;1999.90;999.90;;;8.80;99.90;;;;;;5069366;28;20439;-68
2022/10/01 01:41:04;;;;;;;1999.90;999.90;;;8.80;99.90;;;;;;5072879;28;20447;-68
2022/10/01 01:43:37;;;;;;;1999.90;999.90;;;8.80;99.90;;;;;;5072500;28;20474;-68
2022/10/01 01:46:07;;;;;;;1999.90;999.90;;;8.80;99.90;;;;;;5072905;28;20459;-68
2022/10/01 01:48:37;;;;;;;1999.90;999.90;;;8.80;99.90;;;;;;5072715;28;20446;-68
2022/10/01 01:51:11;;;;;;;1999.90;999.90;;;8.90;99.90;;;;;;5072555;28;20446;-68
2022/10/01 01:53:39;;;;;;;1999.90;999.90;;;8.80;99.90;;;;;;5072647;28;20442;-68
2022/10/01 01:56:06;;;;;;;1999.90;999.90;;;8.90;99.90;;;;;;5072704;28;20467;-68
2022/10/01 01:58:35;;;;;;;1999.90;999.90;;;8.90;99.90;;;;;;5072673;28;20453;-68
2022/10/01 02:01:03;;;;;;;1999.90;999.90;;;9.00;99.90;;;;;;5072628;28;20439;-68
2022/10/01 02:03:33;;;;;;;1999.90;999.90;;;9.00;99.90;;;;;;5072276;28;20494;-68
2022/10/01 02:06:12;;;;;;;1999.90;999.90;;;9.00;99.90;;;;;;5072499;28;20467;-68
2022/10/01 02:08:46;;;;;;;1999.90;999.90;;;9.10;99.90;;;;;;5072565;28;21007;-68
2022/10/01 02:11:27;;;;;;;1999.90;999.90;;;9.10;99.90;;;;;;5072138;28;20439;-68
2022/10/01 02:14:03;;;;;;;1999.90;999.90;;;9.10;99.90;;;;;;5072011;28;20536;-68
2022/10/01 02:16:37;;;;;;;1999.90;999.90;;;9.10;99.90;;;;;;5072286;28;20451;-68
2022/10/01 02:19:12;;;;;;;1999.90;999.90;;;9.10;99.90;;;;;;5072188;28;21004;-68
2022/10/01 02:21:41;;;;;;;1999.90;999.90;;;9.20;99.90;;;;;;5071796;28;20511;-68
2022/10/01 02:24:14;;;;;;;1999.90;999.90;;;9.20;99.90;;;;;;5071843;28;21054;-68
2022/10/01 02:26:43;;;;;;;1999.90;999.90;;;9.30;99.90;;;;;;5071822;28;20473;-68
2022/10/01 02:29:15;;;;;;;1999.90;999.90;;;9.30;99.90;;;;;;5072021;28;20443;-68
2022/10/01 02:31:43;;;;;;;1999.90;999.90;;;9.30;99.90;;;;;;5071549;28;20443;-68
2022/10/01 02:34:10;;;;;;;1999.90;999.90;;;9.30;99.90;;;;;;5071850;28;20463;-69
2022/10/01 02:36:40;;;;;;;1999.90;999.90;;;9.40;99.90;;;;;;5071586;28;20451;-68
2022/10/01 02:39:08;;;;;;;1999.90;999.90;;;9.40;99.90;;;;;;5072001;28;20858;-68
2022/10/01 02:41:36;;;;;;;1999.90;999.90;;;9.40;99.90;;;;;;5071493;28;20464;-68
2022/10/01 02:44:08;;;;;;;1999.90;999.90;;;9.40;99.90;;;;;;5071569;28;20482;-68
2022/10/01 02:46:44;;;;;;;1999.90;999.90;;;9.40;99.90;;;;;;5071642;28;20959;-68
2022/10/01 02:49:12;;;;;;;1999.90;999.90;;;9.40;99.90;;;;;;5071315;28;20453;-68
2022/10/01 02:51:48;;;;;;;1999.90;999.90;;;9.40;99.90;;;;;;5071227;28;20447;-68
2022/10/01 02:54:19;;;;;;;1999.90;999.90;;;9.50;99.90;;;;;;5071223;28;20458;-69
2022/10/01 02:59:31;;;;;;;1999.90;999.90;;;9.40;99.90;;;;;;5071233;28;20564;-68
2022/10/01 03:02:00;;;;;;;1999.90;999.90;;;9.50;99.90;;;;;;5070961;28;20443;-68
2022/10/01 03:04:26;;;;;;;1999.90;999.90;;;9.50;99.90;;;;;;5071155;28;20479;-68
2022/10/01 03:06:53;;;;;;;1999.90;999.90;;;9.50;99.90;;;;;;5071392;28;20450;-68
2022/10/01 03:09:20;;;;;;;1999.90;999.90;;;9.50;99.90;;;;;;5071029;28;20447;-68
2022/10/01 03:11:46;;;;;;;1999.90;999.90;;;9.60;99.90;;;;;;5070756;28;20821;-68
2022/10/01 03:14:13;;;;;;;1999.90;999.90;;;9.50;99.90;;;;;;5070854;28;20465;-68
2022/10/01 03:16:40;;;;;;;1999.90;999.90;;;9.50;99.90;;;;;;5070487;28;20448;-68
2022/10/01 03:19:08;;;;;;;1999.90;999.90;;;9.50;99.90;;;;;;5069126;28;20941;-68
2022/10/01 03:21:35;;;;;;;1999.90;999.90;;;9.50;99.90;;;;;;5068788;28;20487;-68
2022/10/01 03:24:02;;;;;;;1999.90;999.90;;;9.50;99.90;;;;;;5070288;28;20467;-68
2022/10/01 03:26:28;;;;;;;1999.90;999.90;;;9.50;99.90;;;;;;5070577;28;20443;-68
2022/10/01 03:28:55;;;;;;;1999.90;999.90;;;9.50;99.90;;;;;;5070668;28;20454;-68
2022/10/01 03:31:22;;;;;;;1999.90;999.90;;;9.40;99.90;;;;;;5070597;28;20450;-68
2022/10/01 03:33:48;;;;;;;1999.90;999.90;;;9.40;99.90;;;;;;5070566;28;20815;-68
2022/10/01 03:36:17;;;;;;;1999.90;999.90;;;9.50;99.90;;;;;;5070306;28;20462;-68
2022/10/01 03:38:43;;;;;;;1999.90;999.90;;;9.50;99.90;;;;;;5070526;28;20444;-68
2022/10/01 03:41:10;;;;;;;1999.90;999.90;;;9.40;99.90;;;;;;5070118;28;20932;-68
2022/10/01 03:43:37;;;;;;;1999.90;999.90;;;9.50;99.90;;;;;;5070176;28;20475;-68
2022/10/01 03:46:03;;;;;;;1999.90;999.90;;;9.40;99.90;;;;;;5070385;28;20467;-68
2022/10/01 03:48:30;;;;;;;1999.90;999.90;;;9.40;99.90;;;;;;5070527;28;20827;-68
2022/10/01 03:50:59;;;;;;;1999.90;999.90;;;9.30;99.90;;;;;;5070351;28;20447;-67
2022/10/01 03:53:28;;;;;;;1999.90;999.90;;;9.30;99.90;;;;;;5069993;28;20948;-68
2022/10/01 03:55:55;;;;;;;1999.90;999.90;;;9.30;99.90;;;;;;5070098;28;20474;-68
2022/10/01 03:58:22;;;;;;;1999.90;999.90;;;9.30;99.90;;;;;;5070352;28;20454;-68
2022/10/01 04:00:49;;;;;;;1999.90;999.90;;;9.30;99.90;;;;;;5069997;28;20477;-68
2022/10/01 04:03:16;;;;;;;1999.90;999.90;;;9.30;99.90;;;;;;5069654;28;20478;-69
2022/10/01 04:05:44;;;;;;;1999.90;999.90;;;9.20;99.90;;;;;;5070447;28;20466;-68
2022/10/01 04:08:11;;;;;;;1999.90;999.90;;;9.20;99.90;;;;;;5065674;28;20467;-68
2022/10/01 04:10:40;;;;;;;1999.90;999.90;;;9.10;99.90;;;;;;5063904;28;20455;-68
2022/10/01 04:13:07;;;;;;;1999.90;999.90;;;9.10;99.90;;;;;;5069826;28;20450;-68
2022/10/01 04:15:34;;;;;;;1999.90;999.90;;;9.10;99.90;;;;;;5069890;28;20473;-68
2022/10/01 04:18:04;;;;;;;1999.90;999.90;;;9.10;99.90;;;;;;5070324;28;20454;-68
2022/10/01 04:20:31;;;;;;;1999.90;999.90;;;9.10;99.90;;;;;;5069966;28;20459;-68
2022/10/01 04:22:57;;;;;;;1999.90;999.90;;;9.10;99.90;;;;;;5069577;28;20435;-68
2022/10/01 04:25:24;;;;;;;1999.90;999.90;;;9.10;99.90;;;;;;5069854;28;20674;-68
2022/10/01 04:27:57;;;;;;;1999.90;999.90;;;9.10;99.90;;;;;;5069584;28;20455;-68
2022/10/01 04:30:25;;;;;;;1999.90;999.90;;;9.10;99.90;;;;;;5059393;28;21153;-68
2022/10/01 04:32:52;;;;;;;1999.90;999.90;;;9.10;99.90;;;;;;5049539;28;20448;-68
2022/10/01 04:35:19;;;;;;;1999.90;999.90;;;9.10;99.90;;;;;;5048342;28;20485;-69
2022/10/01 04:37:45;;;;;;;1999.90;999.90;;;9.10;99.90;;;;;;5049633;28;20451;-68
2022/10/01 04:40:12;;;;;;;1999.90;999.90;;;9.10;99.90;;;;;;5049600;28;20443;-68
2022/10/01 04:42:40;;;;;;;1999.90;999.90;;;9.10;99.90;;;;;;5049528;28;20476;-68
2022/10/01 04:45:11;;;;;;;1999.90;999.90;;;9.10;99.90;;;;;;5049292;28;21159;-68
2022/10/01 04:47:38;;;;;;;1999.90;999.90;;;9.10;99.90;;;;;;5049580;28;20452;-67
2022/10/01 04:50:06;;;;;;;1999.90;999.90;;;9.10;99.90;;;;;;5049523;28;20444;-68
2022/10/01 04:52:33;;;;;;;1999.90;999.90;;;9.10;99.90;;;;;;5068527;28;20451;-68
2022/10/01 04:55:00;;;;;;;1999.90;999.90;;;9.20;99.90;;;;;;5069517;28;20486;-68
2022/10/01 04:57:27;;;;;;;1999.90;999.90;;;9.20;99.90;;;;;;5069514;28;20451;-68
2022/10/01 04:59:54;;;;;;;1999.90;999.90;;;9.30;99.90;;;;;;5069522;28;20516;-68
2022/10/01 05:02:22;;;;;;;1999.90;999.90;;;9.30;99.90;;;;;;5068429;28;20443;-68
2022/10/01 05:04:48;;;;;;;1999.90;999.90;;;9.30;99.90;;;;;;5069195;28;20490;-68
2022/10/01 05:07:15;;;;;;;1999.90;999.90;;;9.40;99.90;;;;;;5069296;28;21131;-68
2022/10/01 05:09:42;;;;;;;1999.90;999.90;;;9.30;99.90;;;;;;5069516;28;20454;-68
2022/10/01 05:12:09;;;;;;;1999.90;999.90;;;9.40;99.90;;;;;;5069098;28;20447;-68
2022/10/01 05:14:35;;;;;;;1999.90;999.90;;;9.50;99.90;;;;;;5073248;28;21135;-68
2022/10/01 05:17:02;;;;;;;1999.90;999.90;;;9.50;99.90;;;;;;5073196;28;20820;-68
2022/10/01 05:19:30;;;;;;;1999.90;999.90;;;9.70;99.90;;;;;;5073130;28;20499;-68
2022/10/01 05:21:57;;;;;;;1999.90;999.90;;;9.70;99.90;;;;;;5072826;28;20470;-68
2022/10/01 05:24:24;;;;;;;1999.90;999.90;;;9.70;99.90;;;;;;5072954;28;20509;-68
2022/10/01 05:26:52;;;;;;;1999.90;999.90;;;9.80;99.90;;;;;;5073089;28;20447;-68
2022/10/01 05:29:19;;;;;;;1999.90;999.90;;;9.90;99.90;;;;;;5072946;28;20801;-68
2022/10/01 05:31:46;;;;;;;1999.90;999.90;;;9.90;99.90;;;;;;5072712;28;20443;-68
2022/10/01 05:34:13;;;;;;;1999.90;999.90;;;9.90;99.90;;;;;;5072898;28;20581;-68
2022/10/01 05:36:41;;;;;;;1999.90;999.90;;;10.00;99.90;;;;;;5072914;28;20963;-68
2022/10/01 05:39:08;;;;;;;1999.90;999.90;;;10.00;99.90;;;;;;5072816;28;20812;-68
2022/10/01 05:41:35;;;;;;;1999.90;999.90;;;10.10;99.90;;;;;;5072741;28;20451;-68
2022/10/01 05:44:02;;;;;;;1999.90;999.90;;;10.10;99.90;;;;;;5072497;28;20478;-67
2022/10/01 05:46:31;;;;;;;1999.90;999.90;;;10.10;99.90;;;;;;5072723;28;20577;-68
2022/10/01 05:48:58;;;;;;;1999.90;999.90;;;10.10;99.90;;;;;;5072658;28;20443;-68
2022/10/01 05:51:25;;;;;;;1999.90;999.90;;;10.20;99.90;;;;;;5072502;28;20450;-68
2022/10/01 05:53:55;;;;;;;1999.90;999.90;;;10.20;99.90;;;;;;5072530;28;20504;-68
2022/10/01 05:56:22;;;;;;;1999.90;999.90;;;10.30;99.90;;;;;;5072550;28;20447;-68
2022/10/01 05:58:49;;;;;;;1999.90;999.90;;;10.30;99.90;;;;;;5072522;28;20458;-68
2022/10/01 06:01:16;;;;;;;1999.90;999.90;;;10.30;99.90;;;;;;5072449;28;20446;-68
2022/10/01 06:03:43;;;;;;;1999.90;999.90;;;10.30;99.90;;;;;;5072460;28;20454;-68
2022/10/01 06:06:09;;;;;;;1999.90;999.90;;;10.30;99.90;;;;;;5072229;28;20455;-68
2022/10/01 06:08:37;;;;;;;1999.90;999.90;;;10.30;99.90;;;;;;5072495;28;20447;-68
2022/10/01 06:11:05;;;;;;;1999.90;999.90;;;10.40;99.90;;;;;;5060117;28;20455;-68
2022/10/01 06:13:32;;;;;;;1999.90;999.90;;;10.30;99.90;;;;;;5052290;28;20988;-69
2022/10/01 06:15:58;;;;;;;1999.90;999.90;;;10.30;99.90;;;;;;5052389;28;20476;-67
2022/10/01 06:18:26;;;;;;;1999.90;999.90;;;10.20;99.90;;;;;;5052283;28;20848;-68
2022/10/01 06:20:52;;;;;;;1999.90;999.90;;;10.20;99.90;;;;;;5052231;28;20513;-68
2022/10/01 06:23:19;;;;;;;1999.90;999.90;;;10.10;99.90;;;;;;5052070;28;20447;-68
2022/10/01 06:25:46;;;;;;;1999.90;999.90;;;10.10;99.90;;;;;;5051452;28;20865;-68
2022/10/01 06:28:14;;;;;;;1999.90;999.90;;;10.00;99.90;;;;;;5051817;28;20436;-68
2022/10/01 06:30:41;;;;;;;1999.90;999.90;;;9.90;99.90;;;;;;5052081;28;20439;-68
2022/10/01 06:33:10;;;;;;;1999.90;999.90;;;9.90;99.90;;;;;;5051778;28;20443;-68
2022/10/01 06:35:41;;;;;;;1999.90;999.90;;;9.90;99.90;;;;;;5051731;28;20486;-68
2022/10/01 06:38:08;;;;;;;1999.90;999.90;;;9.90;99.90;;;;;;5051691;28;20516;-68
2022/10/01 06:40:35;;;;;;;1999.90;999.90;;;9.90;99.90;;;;;;5051548;28;20444;-68
2022/10/01 06:43:01;;;;;;;1999.90;999.90;;;9.90;99.90;;;;;;5051753;28;20825;-68
2022/10/01 06:45:30;;;;;;;1999.90;999.90;;;9.90;99.90;;;;;;5051607;28;20483;-68
2022/10/01 06:48:01;;;;;;;1999.90;999.90;;;9.90;99.90;;;;;;5056488;28;20451;-68
2022/10/01 06:50:28;;;;;;;1999.90;999.90;;;9.90;99.90;;;;;;5071439;28;20447;-68
2022/10/01 06:52:56;;;;;;;1999.90;999.90;;;9.90;99.90;;;;;;5071152;28;20443;-68
2022/10/01 06:55:25;;;;;;;1999.90;999.90;;;10.00;99.90;;;;;;5071458;28;20463;-69
2022/10/01 06:57:55;;;;;;;1999.90;999.90;;;10.00;99.90;;;;;;5071364;28;20967;-68
2022/10/01 07:00:22;;;;;;;1999.90;999.90;;;10.00;99.90;;;;;;5071254;28;20505;-68
2022/10/01 07:02:50;;;;;;;1999.90;999.90;;;10.10;99.90;;;;;;5071191;28;20450;-68
2022/10/01 07:05:18;;;;;;;1999.90;999.90;;;10.10;99.90;;;;;;5070905;28;21017;-69
2022/10/01 07:07:44;;;;;;;1999.90;999.90;;;10.10;99.90;;;;;;5070939;28;20455;-68
2022/10/01 07:10:12;;;;;;;1999.90;999.90;;;10.20;99.90;;;;;;5071242;28;20450;-68
2022/10/01 07:12:39;;;;;;;1999.90;999.90;;;10.10;99.90;;;;;;5070124;28;20458;-69
2022/10/01 07:15:06;;;;;;;1999.90;999.90;;;10.20;99.90;;;;;;5070820;28;21022;-68
2022/10/01 07:17:33;;;;;;;1999.90;999.90;;;10.20;99.90;;;;;;5070715;28;21095;-69
2022/10/01 07:20:02;;;;;;;1999.90;999.90;;;10.20;99.90;;;;;;5070949;28;20450;-69
2022/10/01 07:22:28;;;;;;;1999.90;999.90;;;10.20;99.90;;;;;;5069262;28;20450;-69
2022/10/01 07:24:55;;;;;;;1999.90;999.90;;;10.20;99.90;;;;;;5070707;28;20489;-71
2022/10/01 07:27:22;;;;;;;1999.90;999.90;;;10.20;99.90;;;;;;5070697;28;20842;-70
2022/10/01 07:29:49;;;;;;;1999.90;999.90;;;10.30;99.90;;;;;;5071151;28;20455;-71
2022/10/01 07:32:16;;;;;;;1999.90;999.90;;;10.20;99.90;;;;;;5067220;28;20462;-69
2022/10/01 07:34:42;;;;;;;1999.90;999.90;;;10.30;99.90;;;;;;5060536;28;20491;-68
2022/10/01 07:37:10;;;;;;;1999.90;999.90;;;10.30;99.90;;;;;;5062289;28;21077;-70
2022/10/01 07:39:38;;;;;;;1999.90;999.90;;;10.30;99.90;;;;;;5070596;28;20447;-68
2022/10/01 07:42:05;;;;;;;1999.90;999.90;;;10.30;99.90;;;;;;5070080;28;20530;-70
2022/10/01 07:44:32;;;;;;;1999.90;999.90;;;10.30;99.90;;;;;;5070279;28;20576;-70
2022/10/01 07:46:59;;;;;;;1999.90;999.90;;;10.30;99.90;;;;;;5070457;28;20451;-69
2022/10/01 07:49:27;;;;;;;1999.90;999.90;;;10.30;99.90;;;;;;5069655;28;20443;-69
2022/10/01 07:51:54;;;;;;;1999.90;999.90;;;10.30;99.90;;;;;;5070077;28;20455;-68
2022/10/01 07:54:22;;;;;;;1999.90;999.90;;;10.30;99.90;;;;;;5070153;28;20594;-68
2022/10/01 07:56:54;;;;;;;1999.90;999.90;;;10.30;99.90;;;;;;5070334;28;20550;-70
2022/10/01 07:59:21;;;;;;;1999.90;999.90;;;10.30;99.90;;;;;;5070096;28;20450;-70
2022/10/01 08:01:50;;;;;;;1999.90;999.90;;;10.40;99.90;;;;;;5069011;28;20438;-71
2022/10/01 08:07:01;;;;;;;1999.90;999.90;;;10.40;99.90;;;;;;5070253;28;20422;-69
2022/10/01 08:09:29;;;;;;;1999.90;999.90;;;10.40;99.90;;;;;;5057653;28;21300;-69
2022/10/01 08:11:56;;;;;;;1999.90;999.90;;;10.50;99.90;;;;;;5066004;28;20447;-70
2022/10/01 08:14:24;;;;;;;1999.90;999.90;;;10.40;99.90;;;;;;5061627;28;20467;-67
2022/10/01 08:16:50;;;;;;;1999.90;999.90;;;10.40;99.90;;;;;;5069992;28;20450;-67
2022/10/01 08:19:17;;;;;;;1999.90;999.90;;;10.50;99.90;;;;;;5070040;28;20447;-67
2022/10/01 08:21:44;;;;;;;1999.90;999.90;;;10.50;99.90;;;;;;5066709;28;20451;-68
2022/10/01 08:24:11;;;;;;;1999.90;999.90;;;10.60;99.90;;;;;;5070230;28;20467;-67
2022/10/01 08:26:40;;;;;;;1999.90;999.90;;;10.60;99.90;;;;;;5070424;28;20815;-67
2022/10/01 08:29:07;;;;;;;1999.90;999.90;;;10.60;99.90;;;;;;5070027;28;20546;-66
2022/10/01 08:31:34;;;;;;;1999.90;999.90;;;10.60;99.90;;;;;;5069891;28;20455;-66
2022/10/01 08:34:00;;;;;;;1999.90;999.90;;;10.60;99.90;;;;;;5069743;28;20449;-66
2022/10/01 08:36:27;;;;;;;1999.90;999.90;;;10.70;99.90;;;;;;5069603;28;20473;-68
2022/10/01 08:38:54;;;;;;;1999.90;999.90;;;10.80;99.90;;;;;;5069652;28;20979;-68
2022/10/01 08:41:36;;;;;;;1999.90;999.90;;;10.90;99.90;;;;;;5069214;28;20449;-67
2022/10/01 08:44:07;;;;;;;1999.90;999.90;;;10.90;99.90;;;;;;5064031;28;20827;-67
2022/10/01 08:46:36;;;;;;;1999.90;999.90;;;11.00;99.90;;;;;;5065422;28;20502;-67
2022/10/01 08:49:12;;;;;;;1999.90;999.90;;;11.10;99.90;;;;;;5067679;28;20447;-67
2022/10/01 08:51:46;;;;;;;1999.90;999.90;;;10.90;99.90;;;;;;5062110;28;20447;-67
2022/10/01 08:54:23;;;;;;;1999.90;999.90;;;10.90;99.90;;;;;;5065011;28;20455;-67
2022/10/01 08:56:50;;;;;;;1999.90;999.90;;;10.90;99.90;;;;;;5058731;28;20442;-67
2022/10/01 08:59:32;;;;;;;1999.90;999.90;;;10.80;99.90;;;;;;5062194;28;20442;-67
2022/10/01 09:01:59;;;;;;;1999.90;999.90;;;10.80;99.90;;;;;;5060855;28;20454;-66
2022/10/01 09:04:26;;;;;;;1999.90;999.90;;;10.90;99.90;;;;;;5068765;28;20976;-67
2022/10/01 09:07:00;;;;;;;1999.90;999.90;;;11.00;99.90;;;;;;5066392;28;20446;-67
2022/10/01 09:09:39;;;;;;;1999.90;999.90;;;11.10;99.90;;;;;;5081959;28;20435;-67
2022/10/01 09:12:23;;;;;;;1999.90;999.90;;;11.20;99.90;;;;;;5063820;28;20443;-66
2022/10/01 09:15:18;;;;;;;1999.90;999.90;;;11.30;99.90;;;;;;5063263;28;20824;-66
2022/10/01 09:17:57;;;;;;;1999.90;999.90;;;11.30;99.90;;;;;;5064015;28;20975;-67
2022/10/01 09:20:26;;;;;;;1999.90;999.90;;;11.30;99.90;;;;;;5068529;28;20446;-67
2022/10/01 09:23:05;;;;;;;1999.90;999.90;;;11.30;99.90;;;;;;5068598;28;20446;-67
2022/10/01 09:25:37;;;;;;;1999.90;999.90;;;11.40;99.90;;;;;;5067367;28;20486;-66
2022/10/01 09:28:14;;;;;;;1999.90;999.90;;;11.60;99.90;;;;;;5068955;28;20813;-68
2022/10/01 09:30:46;;;;;;;1999.90;999.90;;;11.60;99.90;;;;;;5065929;28;20820;-67
2022/10/01 09:33:17;;;;;;;1999.90;999.90;;;11.60;99.90;;;;;;5067703;28;20443;-68
2022/10/01 09:35:48;;;;;;;1999.90;999.90;;;11.70;99.90;;;;;;5067766;28;20473;-67
2022/10/01 09:38:19;;;;;;;1999.90;999.90;;;11.80;99.90;;;;;;5069337;28;21007;-67
2022/10/01 09:40:53;;;;;;;1999.90;999.90;;;11.80;99.90;;;;;;5068814;28;20435;-67
2022/10/01 09:43:22;;;;;;;1999.90;999.90;;;11.70;99.90;;;;;;5068744;28;20873;-67
2022/10/01 09:45:50;;;;;;;1999.90;999.90;;;11.70;99.90;;;;;;5068957;28;21025;-67
2022/10/01 09:48:29;;;;;;;1999.90;999.90;;;11.70;99.90;;;;;;5068852;28;20454;-68
2022/10/01 09:50:59;;;;;;;1999.90;999.90;;;11.70;99.90;;;;;;5069202;28;20447;-67
2022/10/01 09:53:35;;;;;;;1999.90;999.90;;;11.60;99.90;;;;;;5068869;28;20447;-67
2022/10/01 09:56:08;;;;;;;1999.90;999.90;;;11.60;99.90;;;;;;5068786;28;20465;-67
2022/10/01 09:58:38;;;;;;;1999.90;999.90;;;11.60;99.90;;;;;;5068815;28;20816;-67
2022/10/01 10:01:17;;;;;;;1999.90;999.90;;;11.60;99.90;;;;;;5071722;28;20944;-67
2022/10/01 10:03:53;;;;;;;1999.90;999.90;;;11.60;99.90;;;;;;5068413;28;20495;-67
2022/10/01 10:06:26;;;;;;;1999.90;999.90;;;11.70;99.90;;;;;;5069597;28;20472;-67
2022/10/01 10:08:54;;;;;;;1999.90;999.90;;;11.60;99.90;;;;;;5070982;28;20534;-67
2022/10/01 10:11:23;;;;;;;1999.90;999.90;;;11.60;99.90;;;;;;5052313;28;20467;-67
2022/10/01 10:13:52;;;;;;;1999.90;999.90;;;11.60;99.90;;;;;;5059144;28;20940;-67
2022/10/01 10:16:25;;;;;;;1999.90;999.90;;;11.70;99.90;;;;;;5072061;28;20455;-68
2022/10/01 10:18:56;;;;;;;1999.90;999.90;;;11.70;99.90;;;;;;5072029;28;20443;-67
2022/10/01 10:21:26;;;;;;;1999.90;999.90;;;11.80;99.90;;;;;;5072013;28;20451;-67
2022/10/01 10:23:55;;;;;;;1999.90;999.90;;;11.90;99.90;;;;;;5071962;28;20530;-66
2022/10/01 10:26:30;;;;;;;1999.90;999.90;;;12.00;99.90;;;;;;5072160;28;20483;-66
2022/10/01 10:29:00;;;;;;;1999.90;999.90;;;12.00;99.90;;;;;;5072205;28;20493;-67
2022/10/01 10:31:30;;;;;;;1999.90;999.90;;;12.00;99.90;;;;;;5071647;28;20451;-67
2022/10/01 10:34:04;;;;;;;1999.90;999.90;;;12.00;99.90;;;;;;5071541;28;20435;-67
2022/10/01 10:36:35;;;;;;;1999.90;999.90;;;12.00;99.90;;;;;;5069438;28;20455;-66
2022/10/01 10:39:04;;;;;;;1999.90;999.90;;;11.90;99.90;;;;;;5071523;28;20446;-67
2022/10/01 10:41:31;;;;;;;1999.90;999.90;;;11.90;99.90;;;;;;5071476;28;20825;-67
2022/10/01 10:44:02;;;;;;;1999.90;999.90;;;12.00;99.90;;;;;;5071577;28;20458;-67
2022/10/01 10:46:33;;;;;;;1999.90;999.90;;;12.00;99.90;;;;;;5071215;28;20482;-67
2022/10/01 10:49:06;;;;;;;1999.90;999.90;;;12.00;99.90;;;;;;5071570;28;20450;-67
2022/10/01 10:51:50;;;;;;;1999.90;999.90;;;12.00;99.90;;;;;;5071336;28;20450;-67
2022/10/01 10:54:19;;;;;;;1999.90;999.90;;;12.10;99.90;;;;;;5071662;28;20507;-66
2022/10/01 10:57:01;;;;;;;1999.90;999.90;;;12.10;99.90;;;;;;5068873;28;20815;-68
2022/10/01 10:59:30;;;;;;;1999.90;999.90;;;12.20;99.90;;;;;;5070845;28;20949;-66
2022/10/01 11:01:59;;;;;;;1999.90;999.90;;;12.20;99.90;;;;;;5070626;28;20439;-67
2022/10/01 11:04:38;;;;;;;1999.90;999.90;;;12.20;99.90;;;;;;5086247;28;20462;-66
2022/10/01 11:07:05;;;;;;;1999.90;999.90;;;12.20;99.90;;;;;;5069903;28;20474;-67
2022/10/01 11:09:43;;;;;;;1999.90;999.90;;;12.20;99.90;;;;;;5062504;28;20802;-67
2022/10/01 11:12:23;;;;;;;1999.90;999.90;;;12.30;99.90;;;;;;5070416;28;20447;-66
2022/10/01 11:15:08;;;;;;;1999.90;999.90;;;12.40;99.90;;;;;;5071038;28;20471;-66
2022/10/01 11:18:15;;;;;;;1999.90;999.90;;;12.50;99.90;;;;;;5069842;28;20945;-67
2022/10/01 11:20:53;;;;;;;1999.90;999.90;;;12.60;99.90;;;;;;5055061;28;20450;-67
2022/10/01 11:23:38;;;;;;;1999.90;999.90;;;12.70;99.90;;;;;;5065116;28;20451;-67
2022/10/01 11:26:16;;;;;;;1999.90;999.90;;;12.70;99.90;;;;;;5064649;28;20482;-67
2022/10/01 11:28:53;;;;;;;1999.90;999.90;;;12.80;99.90;;;;;;5057753;28;20473;-66
2022/10/01 11:31:31;;;;;;;1999.90;999.90;;;12.80;99.90;;;;;;5068177;28;21029;-67
2022/10/01 11:34:20;;;;;;;1999.90;999.90;;;12.80;99.90;;;;;;5059737;28;20439;-67
2022/10/01 11:36:55;;;;;;;1999.90;999.90;;;12.70;99.90;;;;;;5061971;28;20447;-67
2022/10/01 11:39:24;;;;;;;1999.90;999.90;;;12.70;99.90;;;;;;5063295;28;20492;-67
2022/10/01 11:41:58;;;;;;;1999.90;999.90;;;12.80;99.90;;;;;;5059698;28;20448;-67
2022/10/01 11:44:29;;;;;;;1999.90;999.90;;;12.80;99.90;;;;;;5060801;28;20466;-67
2022/10/01 11:46:59;;;;;;;1999.90;999.90;;;12.80;99.90;;;;;;5057370;28;20495;-66
2022/10/01 11:49:44;;;;;;;1999.90;999.90;;;12.80;99.90;;;;;;5060099;28;20447;-68
2022/10/01 11:52:17;;;;;;;1999.90;999.90;;;12.80;99.90;;;;;;5061307;28;20451;-67
2022/10/01 11:54:55;;;;;;;1999.90;999.90;;;12.80;99.90;;;;;;5059713;28;20467;-68
2022/10/01 12:00:10;;;;;;;1999.90;999.90;;;12.90;99.90;;;;;;5059257;28;20561;-67
2022/10/01 12:02:46;;;;;;;1999.90;999.90;;;12.90;99.90;;;;;;5060926;28;20932;-67
2022/10/01 12:05:19;;;;;;;1999.90;999.90;;;12.90;99.90;;;;;;5076490;28;20465;-67
2022/10/01 12:07:49;;;;;;;1999.90;999.90;;;12.90;99.90;;;;;;5069362;28;20431;-66
2022/10/01 12:10:29;;;;;;;1999.90;999.90;;;12.90;99.90;;;;;;5049518;28;20440;-67
2022/10/01 12:13:01;;;;;;;1999.90;999.90;;;12.90;99.90;;;;;;5049311;28;20475;-67
2022/10/01 12:15:32;;;;;;;1999.90;999.90;;;12.90;99.90;;;;;;5063418;28;20474;-67
2022/10/01 12:18:04;;;;;;;1999.90;999.90;;;12.90;99.90;;;;;;5068004;28;20449;-67
2022/10/01 12:20:36;;;;;;;1999.90;999.90;;;13.00;99.90;;;;;;5064733;28;20827;-68
2022/10/01 12:23:05;;;;;;;1999.90;999.90;;;13.10;99.90;;;;;;5069131;28;20439;-67
2022/10/01 12:25:41;;;;;;;1999.90;999.90;;;13.30;99.90;;;;;;5068938;28;20972;-67